オムスク・ツェントラリヌィ空港の過去48時間の天気

オムスク・ツェントラリヌィ空港 (Omsk)

現在時刻: 5/26 08:19 +06 (5/26 02:19 UTC) 以下の時間は現地時間です。

過去48時間のMETAR気象情報
時間 風向 風速(m/s) 視程 気温(℃) 湿度(%) 気圧(hPa) 天気現象
26 08:00 東北東 4 10km以上 22 41 1014
26 07:30 東北東 3 10km以上 20 49 1014
26 07:00 東北東 3 10km以上 19 52 1014
26 06:30 東北東 2 10km以上 17 59 1014
26 06:00 東北東 2 10km以上 16 63 1014
26 05:30 北東 3 10km以上 15 63 1014
26 05:00 東北東 3 10km以上 16 59 1014
26 04:30 東北東 4 10km以上 16 59 1014
26 04:00 東北東 4 10km以上 16 59 1013
26 03:30 北東 4 10km以上 16 59 1013
26 03:00 北東 3 10km以上 16 59 1014
26 02:30 東北東 4 10km以上 17 52 1014
26 02:00 東北東 4 10km以上 18 52 1014
26 01:30 東北東 3 10km以上 18 49 1014
26 01:00 東北東 2 10km以上 19 46 1014
26 00:30 東北東 3 10km以上 20 43 1014
26 00:00 東北東 3 10km以上 20 43 1014
25 23:30 東北東 2 10km以上 20 43 1014
25 23:00 東北東 2 10km以上 22 35 1014
25 22:30 3 10km以上 22 35 1014
25 22:00 4 10km以上 22 35 1014
25 21:30 4 10km以上 23 31 1014
25 21:00 4 10km以上 25 28 1014
25 20:30 4 10km以上 25 28 1014
25 20:00 3 10km以上 27 23 1014
25 19:30 4 10km以上 27 24 1014
25 18:30 5 10km以上 29 20 1014
25 18:00 6 10km以上 29 19 1014
25 17:30 5 10km以上 30 18 1014
25 17:00 6 10km以上 29 19 1014
25 16:30 東北東 5 10km以上 29 19 1014
25 16:00 東北東 6 10km以上 30 17 1014
25 15:30 5 10km以上 30 19 1015
25 15:00 東北東 5 10km以上 30 18 1015
25 14:30 北北東 2 10km以上 29 19 1015
25 14:00 3 10km以上 29 16 1015
25 13:30 4 10km以上 29 18 1016
25 13:00 南東 4 10km以上 29 16 1016
25 12:30 東南東 3 10km以上 28 17 1016
25 12:00 南東 4 10km以上 28 19 1016
25 11:30 南東 3 10km以上 27 20 1016
25 11:00 南南東 1 10km以上 27 18 1017
25 10:30 2 10km以上 26 21 1017
25 10:00 南南西 2 10km以上 25 21 1017
25 09:30 1 10km以上 25 24 1017
25 09:00 1 10km以上 23 31 1017
25 08:30 1 10km以上 21 35 1017
25 08:00 南東 2 10km以上 20 40 1017
25 07:30 静穏 0 10km以上 19 40 1017
25 07:00 1 10km以上 17 45 1017
25 06:30 南南東 1 10km以上 16 55 1017
25 06:00 南南東 1 10km以上 15 55 1017
25 05:30 東南東 2 10km以上 13 67 1017
25 05:00 2 10km以上 12 71 1016
25 04:30 2 10km以上 13 62 1016
25 04:00 東北東 2 10km以上 14 59 1016
25 03:30 東北東 2 8000m 14 59 1016
25 03:00 東北東 2 8000m 14 59 1016
25 02:30 東北東 2 10km以上 14 59 1016
25 02:00 東北東 3 10km以上 14 59 1016
25 01:30 東北東 2 10km以上 14 59 1016
UNOO 260200Z 07004MPS CAVOK 22/08 Q1014 R07/CLRD60 NOSIG RMK QFE751
UNOO 260130Z 07003MPS CAVOK 20/09 Q1014 R07/CLRD60 NOSIG RMK QFE752
UNOO 260100Z 07003MPS CAVOK 19/09 Q1014 R25/CLRD60 NOSIG RMK QFE752
UNOO 260030Z 06002MPS CAVOK 17/09 Q1014 R25/CLRD60 NOSIG RMK QFE752
UNOO 260000Z 06002MPS CAVOK 16/09 Q1014 R25/CLRD60 NOSIG RMK QFE752
UNOO 252330Z 05003MPS CAVOK 15/08 Q1014 R07/CLRD60 NOSIG RMK QFE752
UNOO 252300Z 07003MPS CAVOK 16/08 Q1014 R07/CLRD60 NOSIG RMK QFE752
UNOO 252230Z 06004MPS CAVOK 16/08 Q1014 R07/CLRD60 NOSIG RMK QFE751
UNOO 252200Z 06004MPS CAVOK 16/08 Q1013 R07/CLRD60 NOSIG RMK QFE751
UNOO 252130Z 05004MPS CAVOK 16/08 Q1013 R07/CLRD60 NOSIG RMK QFE751
UNOO 252100Z 05003MPS CAVOK 16/08 Q1014 R07/CLRD60 NOSIG RMK QFE751
UNOO 252030Z 06004MPS CAVOK 17/07 Q1014 R07/CLRD60 NOSIG RMK QFE752
UNOO 252000Z 06004MPS CAVOK 18/08 Q1014 R07/CLRD60 NOSIG RMK QFE752
UNOO 251930Z 06003MPS CAVOK 18/07 Q1014 R07/CLRD60 NOSIG RMK QFE752
UNOO 251900Z 06002MPS CAVOK 19/07 Q1014 R07/CLRD60 NOSIG RMK QFE752
UNOO 251830Z 06003MPS CAVOK 20/07 Q1014 R07/CLRD60 NOSIG RMK QFE752
UNOO 251800Z 06003MPS CAVOK 20/07 Q1014 R07/CLRD60 NOSIG RMK QFE752
UNOO 251730Z 07002MPS CAVOK 20/07 Q1014 R07/CLRD60 NOSIG RMK QFE752
UNOO 251700Z 07002MPS CAVOK 22/06 Q1014 R07/CLRD60 NOSIG RMK QFE752
UNOO 251630Z 08003MPS CAVOK 22/06 Q1014 R07/CLRD60 NOSIG RMK QFE752
UNOO 251600Z 08004MPS CAVOK 22/06 Q1014 R07/CLRD60 NOSIG RMK QFE752
UNOO 251530Z 09004MPS CAVOK 23/05 Q1014 R07/CLRD60 NOSIG RMK QFE752
UNOO 251500Z 08004MPS CAVOK 25/05 Q1014 R07/CLRD60 NOSIG RMK QFE752
UNOO 251430Z 09004MPS CAVOK 25/05 Q1014 R07/CLRD60 NOSIG RMK QFE752
UNOO 251400Z 09003MPS CAVOK 27/04 Q1014 R07/CLRD60 NOSIG RMK QFE752
UNOO 251330Z 08004MPS CAVOK 27/05 Q1014 R07/CLRD60 NOSIG RMK QFE752
UNOO 251230Z 10005MPS CAVOK 29/04 Q1014 R25/CLRD60 NOSIG RMK QFE752
UNOO 251200Z 10006MPS CAVOK 29/03 Q1014 R07/CLRD60 NOSIG RMK QFE752
UNOO 251130Z 09005MPS CAVOK 30/03 Q1014 R07/CLRD60 NOSIG RMK QFE752
UNOO 251100Z 08006MPS CAVOK 29/03 Q1014 R07/CLRD60 NOSIG RMK QFE752
UNOO 251030Z 07005MPS 9999 SCT040 29/03 Q1014 R07/CLRD60 NOSIG RMK QFE752
UNOO 251000Z 07006MPS 9999 SCT040 30/02 Q1014 R07/CLRD60 NOSIG RMK QFE752
UNOO 250930Z 09005G10MPS 9999 SCT040 30/04 Q1015 R07/CLRD60 NOSIG RMK QFE752
UNOO 250900Z 06005MPS CAVOK 30/03 Q1015 R07/CLRD60 NOSIG RMK QFE752
UNOO 250830Z 03002G07MPS CAVOK 29/03 Q1015 R07/CLRD60 NOSIG RMK QFE753
UNOO 250800Z 08003MPS 050V120 CAVOK 29/01 Q1015 R07/CLRD60 NOSIG RMK QFE753
UNOO 250730Z 10004MPS 030V170 CAVOK 29/02 Q1016 R07/CLRD60 NOSIG RMK QFE753
UNOO 250700Z 14004MPS CAVOK 29/01 Q1016 R07/CLRD60 NOSIG RMK QFE753
UNOO 250630Z 12003MPS 090V160 CAVOK 28/01 Q1016 R07/CLRD60 NOSIG RMK QFE753
UNOO 250600Z 13004MPS 080V150 CAVOK 28/02 Q1016 R07/CLRD60 NOSIG RMK QFE753
UNOO 250530Z 13003MPS CAVOK 27/02 Q1016 R07/CLRD60 NOSIG RMK QFE754
UNOO 250500Z 16001MPS CAVOK 27/01 Q1017 R07/CLRD60 NOSIG RMK QFE754
UNOO 250430Z 18002MPS 140V240 CAVOK 26/02 Q1017 R07/CLRD60 NOSIG RMK QFE754
UNOO 250400Z 20002MPS 110V240 CAVOK 25/01 Q1017 R07/CLRD60 NOSIG RMK QFE754
UNOO 250330Z 19001MPS CAVOK 25/03 Q1017 R07/CLRD60 NOSIG RMK QFE754
UNOO 250300Z 18001MPS CAVOK 23/05 Q1017 R25/CLRD60 NOSIG RMK QFE754
UNOO 250230Z 17001MPS CAVOK 21/05 Q1017 R25/CLRD60 NOSIG RMK QFE755
UNOO 250200Z 14002MPS CAVOK 20/06 Q1017 R25/CLRD60 NOSIG RMK QFE755
UNOO 250130Z 00000MPS CAVOK 19/05 Q1017 R25/CLRD60 NOSIG RMK QFE755
UNOO 250100Z 19001MPS CAVOK 17/05 Q1017 R25/CLRD60 NOSIG RMK QFE754
UNOO 250030Z 15001MPS CAVOK 16/07 Q1017 R25/CLRD60 NOSIG RMK QFE754
UNOO 250000Z 15001MPS CAVOK 15/06 Q1017 R25/CLRD60 NOSIG RMK QFE754
UNOO 242330Z 12002MPS CAVOK 13/07 Q1017 R07/CLRD60 NOSIG RMK QFE754
UNOO 242300Z 09002MPS CAVOK 12/07 Q1016 R07/CLRD60 NOSIG RMK QFE754
UNOO 242230Z 08002MPS CAVOK 13/06 Q1016 R07/CLRD60 NOSIG RMK QFE753
UNOO 242200Z 07002MPS CAVOK 14/06 Q1016 R07/CLRD60 NOSIG RMK QFE753
UNOO 242130Z 06002MPS 8000 NSC 14/06 Q1016 R07/CLRD60 NOSIG RMK QFE753
UNOO 242100Z 06002MPS 8000 NSC 14/06 Q1016 R07/CLRD60 NOSIG RMK QFE753
UNOO 242030Z 06002MPS CAVOK 14/06 Q1016 R07/CLRD60 NOSIG RMK QFE753
UNOO 242000Z 07003MPS CAVOK 14/06 Q1016 R07/CLRD60 NOSIG RMK QFE753
UNOO 241930Z 06002MPS CAVOK 14/06 Q1016 R07/CLRD60 NOSIG RMK QFE753